createdAt,value
2023-01-01T00:01:40.786Z,6.30
2023-01-01T00:06:47.094Z,4.90
2023-01-01T00:11:49.854Z,7.80
2023-01-01T00:16:55.493Z,3.60
2023-01-01T00:22:02.063Z,4.10
2023-01-01T00:27:08.490Z,4.90
2023-01-01T00:32:15.430Z,4.90
2023-01-01T00:37:21.923Z,5.60
2023-01-01T00:42:24.705Z,5.60
2023-01-01T00:47:27.446Z,5.10
2023-01-01T00:52:30.167Z,5.70
2023-01-01T00:57:32.991Z,5.80
2023-01-01T01:02:36.267Z,5.60
2023-01-01T01:07:40.021Z,4.80
2023-01-01T01:12:42.977Z,6.70
2023-01-01T01:17:45.868Z,5.70
2023-01-01T01:22:48.657Z,5.80
2023-01-01T01:27:51.374Z,6.40
2023-01-01T01:32:54.214Z,5.60
2023-01-01T01:37:56.987Z,6.40
2023-01-01T01:42:59.698Z,9.10
2023-01-01T01:48:02.651Z,6.80
2023-01-01T01:53:11.040Z,6.20
2023-01-01T01:58:16.170Z,6.20
2023-01-01T02:03:30.005Z,5.70
2023-01-01T02:08:34.089Z,5.60
2023-01-01T02:13:37.379Z,5.20
2023-01-01T02:18:49.114Z,5.10
2023-01-01T02:24:10.425Z,7.00
2023-01-01T02:29:40.479Z,5.90
2023-01-01T02:35:32.454Z,5.70
2023-01-01T02:40:43.050Z,6.10
2023-01-01T02:45:46.039Z,7.50
2023-01-01T02:50:48.866Z,7.50
2023-01-01T02:55:54.310Z,6.20
2023-01-01T03:01:11.103Z,6.40
2023-01-01T03:06:32.220Z,5.90
2023-01-01T03:11:51.282Z,6.20
2023-01-01T03:17:08.766Z,6.80
2023-01-01T03:22:17.307Z,6.80
2023-01-01T03:27:35.225Z,7.10
2023-01-01T03:33:01.390Z,7.30
2023-01-01T03:38:08.962Z,6.60
2023-01-01T03:43:28.013Z,6.10
2023-01-01T03:48:50.773Z,5.50
2023-01-01T03:53:58.008Z,7.60
2023-01-01T03:59:26.105Z,6.90
2023-01-01T04:04:29.110Z,6.00
2023-01-01T04:09:36.087Z,5.90
2023-01-01T04:14:42.742Z,8.70
2023-01-01T04:19:50.054Z,6.40
2023-01-01T04:24:56.042Z,7.50
2023-01-01T04:29:58.811Z,5.10
2023-01-01T04:35:01.580Z,7.00
2023-01-01T04:40:05.719Z,7.70
2023-01-01T04:45:09.232Z,8.60
2023-01-01T04:50:12.016Z,5.50
2023-01-01T04:55:14.823Z,5.50
2023-01-01T05:00:17.800Z,6.10
2023-01-01T05:05:20.779Z,7.80
2023-01-01T05:10:23.528Z,7.50
2023-01-01T05:15:26.241Z,5.70
2023-01-01T05:20:28.952Z,5.30
2023-01-01T05:25:31.689Z,7.50
2023-01-01T05:30:34.419Z,6.30
2023-01-01T05:35:37.151Z,7.40
2023-01-01T05:40:40.308Z,6.60
2023-01-01T05:45:44.285Z,5.80
2023-01-01T05:50:47.060Z,11.70
2023-01-01T05:55:54.064Z,7.10
2023-01-01T06:00:57.221Z,8.30
2023-01-01T06:06:04.660Z,5.90
2023-01-01T06:11:11.438Z,6.10
2023-01-01T06:21:19.748Z,6.50
2023-01-01T06:26:31.537Z,6.00
2023-01-01T06:31:40.365Z,7.70
2023-01-01T06:36:43.547Z,8.10
2023-01-01T06:41:46.298Z,5.80
2023-01-01T06:46:49.050Z,6.20
2023-01-01T06:51:51.792Z,7.50
2023-01-01T06:56:54.511Z,6.20
2023-01-01T07:01:57.314Z,5.10
2023-01-01T07:07:01.466Z,6.00
2023-01-01T07:12:04.423Z,5.00
2023-01-01T07:17:07.149Z,8.00
2023-01-01T07:22:11.005Z,5.50
2023-01-01T07:27:13.757Z,7.40
2023-01-01T07:32:16.475Z,6.30
2023-01-01T07:37:20.636Z,7.90
2023-01-01T07:42:23.411Z,9.30
2023-01-01T07:47:26.561Z,6.90
2023-01-01T07:52:29.274Z,9.30
2023-01-01T07:57:32.011Z,6.70
2023-01-01T08:02:34.976Z,7.60
2023-01-01T08:07:38.485Z,6.20
2023-01-01T08:12:41.792Z,9.00
2023-01-01T08:17:47.151Z,7.00
2023-01-01T08:22:50.227Z,5.50
2023-01-01T08:27:53.000Z,8.20
2023-01-01T08:32:55.786Z,6.60
2023-01-01T08:37:58.750Z,6.70
2023-01-01T08:43:01.496Z,5.40
2023-01-01T08:48:04.547Z,7.10
2023-01-01T08:53:07.337Z,7.40
2023-01-01T08:58:10.060Z,7.50
2023-01-01T09:03:12.903Z,8.60
2023-01-01T09:08:16.557Z,7.00
2023-01-01T09:13:22.126Z,8.50
2023-01-01T09:18:24.878Z,8.30
2023-01-01T09:23:27.677Z,6.90
2023-01-01T09:28:31.041Z,7.30
2023-01-01T09:33:34.612Z,12.30
2023-01-01T09:38:37.365Z,10.50
2023-01-01T09:44:18.772Z,8.20
2023-01-01T09:49:35.591Z,10.20
2023-01-01T09:54:43.828Z,8.30
2023-01-01T09:59:46.762Z,9.40
2023-01-01T10:05:26.847Z,9.50
2023-01-01T10:10:40.949Z,9.00
2023-01-01T10:15:57.117Z,11.10
2023-01-01T10:21:12.623Z,10.10
2023-01-01T10:26:18.762Z,9.50
2023-01-01T10:31:34.698Z,7.40
2023-01-01T10:41:40.693Z,10.50
2023-01-01T10:46:48.826Z,5.30
2023-01-01T10:51:54.119Z,7.70
2023-01-01T10:56:56.950Z,8.60
2023-01-01T11:02:21.781Z,8.80
2023-01-01T11:07:30.474Z,9.40
2023-01-01T11:13:04.386Z,8.30
2023-01-01T11:18:14.986Z,11.60
2023-01-01T11:23:39.561Z,6.40
2023-01-01T11:28:42.574Z,11.90
2023-01-01T11:33:50.949Z,6.80
2023-01-01T11:39:18.175Z,6.50
2023-01-01T11:44:40.041Z,11.70
2023-01-01T11:49:43.139Z,7.20
2023-01-01T11:54:47.573Z,8.40
2023-01-01T12:00:01.201Z,9.10
2023-01-01T12:05:42.546Z,9.20
2023-01-01T12:10:58.358Z,10.90
2023-01-01T12:16:27.117Z,7.00
2023-01-01T12:21:32.762Z,10.50
2023-01-01T12:26:47.419Z,7.30
2023-01-01T12:32:24.094Z,7.90
2023-01-01T12:37:38.715Z,6.80
2023-01-01T12:43:01.114Z,9.40
2023-01-01T12:48:43.315Z,12.40
2023-01-01T12:54:04.316Z,8.40
2023-01-01T12:59:32.261Z,9.10
2023-01-01T13:04:36.690Z,11.10
2023-01-01T13:09:45.304Z,8.60
2023-01-01T13:14:52.699Z,8.10
2023-01-01T13:20:15.098Z,9.20
2023-01-01T13:25:19.238Z,12.00
2023-01-01T13:30:38.268Z,7.10
2023-01-01T13:35:41.583Z,9.00
2023-01-01T13:40:51.491Z,10.30
2023-01-01T13:46:13.851Z,7.50
2023-01-01T13:52:05.246Z,9.40
2023-01-01T13:57:20.631Z,6.40
2023-01-01T14:02:31.324Z,9.40
2023-01-01T14:07:51.260Z,7.50
2023-01-01T14:13:16.466Z,7.60
2023-01-01T14:18:22.149Z,8.30
2023-01-01T14:23:41.600Z,7.70
2023-01-01T14:28:45.039Z,11.70
2023-01-01T14:33:48.571Z,9.70
2023-01-01T14:38:56.862Z,6.40
2023-01-01T14:44:24.727Z,7.00
2023-01-01T14:49:45.481Z,8.20
2023-01-01T14:54:48.673Z,8.30
2023-01-01T14:59:56.626Z,8.70
2023-01-01T15:05:27.687Z,9.30
2023-01-01T15:10:36.384Z,8.90
2023-01-01T15:15:45.300Z,7.20
2023-01-01T15:20:54.057Z,9.20
2023-01-01T15:25:56.894Z,9.00
2023-01-01T15:31:00.020Z,7.20
2023-01-01T15:36:04.064Z,7.40
2023-01-01T15:41:40.731Z,8.80
2023-01-01T15:46:49.216Z,8.40
2023-01-01T15:51:55.514Z,7.30
2023-01-01T15:56:58.414Z,10.80
2023-01-01T16:02:13.582Z,10.20
2023-01-01T16:07:23.505Z,10.00
2023-01-01T16:12:26.403Z,9.70
2023-01-01T16:17:29.209Z,10.90
2023-01-01T16:22:36.569Z,11.90
2023-01-01T16:27:39.855Z,14.60
2023-01-01T16:32:42.694Z,11.10
2023-01-01T16:37:45.479Z,11.30
2023-01-01T16:42:48.278Z,7.70
2023-01-01T16:47:51.316Z,9.90
2023-01-01T16:52:54.109Z,9.70
2023-01-01T16:58:21.209Z,9.30
2023-01-01T17:03:19.698Z,10.90
2023-01-01T17:08:23.001Z,9.00
2023-01-01T17:13:25.811Z,9.90
2023-01-01T17:18:55.135Z,16.60
2023-01-01T17:23:51.793Z,11.50
2023-01-01T17:29:00.288Z,11.70
2023-01-01T17:34:04.229Z,10.00
2023-01-01T17:39:07.363Z,11.40
2023-01-01T17:44:11.707Z,9.10
2023-01-01T17:49:14.639Z,12.30
2023-01-01T17:54:17.473Z,10.40
2023-01-01T17:59:20.291Z,9.60
2023-01-01T18:04:23.065Z,9.70
2023-01-01T18:09:25.925Z,9.30
2023-01-01T18:14:28.763Z,12.70
2023-01-01T18:19:32.467Z,8.60
2023-01-01T18:24:35.832Z,8.50
2023-01-01T18:29:38.621Z,10.70
2023-01-01T18:34:41.405Z,7.60
2023-01-01T18:39:44.259Z,12.70
2023-01-01T18:44:47.004Z,10.40
2023-01-01T18:50:02.182Z,8.90
2023-01-01T18:55:04.933Z,9.30
2023-01-01T19:00:22.921Z,8.70
2023-01-01T19:05:27.566Z,10.90
2023-01-01T19:10:44.540Z,10.00
2023-01-01T19:21:21.560Z,14.30
2023-01-01T19:26:25.739Z,10.90
2023-01-01T19:31:28.899Z,14.40
2023-01-01T19:36:31.780Z,10.60
2023-01-01T19:41:36.332Z,11.40
2023-01-01T19:46:39.359Z,8.60
2023-01-01T19:51:42.345Z,8.50
2023-01-01T19:56:46.673Z,11.10
2023-01-01T20:02:03.534Z,10.40
2023-01-01T20:07:12.307Z,10.10
2023-01-01T20:12:15.035Z,9.20
2023-01-01T20:17:18.461Z,11.50
2023-01-01T20:22:22.154Z,11.00
2023-01-01T20:27:27.257Z,11.90
2023-01-01T20:32:30.119Z,12.50
2023-01-01T20:37:39.101Z,9.00
2023-01-01T20:42:43.693Z,11.20
2023-01-01T20:47:46.532Z,11.50
2023-01-01T20:52:49.338Z,11.80
2023-01-01T20:57:52.225Z,11.80
2023-01-01T21:02:55.243Z,10.00
2023-01-01T21:07:59.489Z,11.00
2023-01-01T21:13:02.438Z,10.90
2023-01-01T21:18:05.807Z,13.70
2023-01-01T21:23:29.348Z,16.00
2023-01-01T21:28:33.829Z,13.10
2023-01-01T21:33:36.702Z,8.60
2023-01-01T21:38:39.825Z,14.60
2023-01-01T21:43:45.640Z,11.80
2023-01-01T21:49:02.953Z,9.70
2023-01-01T21:54:14.922Z,14.30
2023-01-01T21:59:35.567Z,12.40
2023-01-01T22:04:45.671Z,13.60
2023-01-01T22:09:57.559Z,14.40
2023-01-01T22:15:28.674Z,9.10
2023-01-01T22:20:34.805Z,11.20
2023-01-01T22:25:38.005Z,10.90
2023-01-01T22:30:42.750Z,12.90
2023-01-01T22:35:45.903Z,10.00
2023-01-01T22:40:50.669Z,13.00
2023-01-01T22:45:54.104Z,11.10
2023-01-01T22:51:02.191Z,10.30
2023-01-01T22:56:05.328Z,14.20
2023-01-01T23:01:08.100Z,11.10
2023-01-01T23:06:11.088Z,11.30
2023-01-01T23:11:13.897Z,10.00
2023-01-01T23:16:16.656Z,13.50
2023-01-01T23:21:26.762Z,9.30
2023-01-01T23:26:30.931Z,12.10
2023-01-01T23:31:34.905Z,17.90
2023-01-01T23:36:39.511Z,11.20
2023-01-01T23:41:42.357Z,9.20
2023-01-01T23:46:45.628Z,11.00
2023-01-01T23:51:48.498Z,12.20
2023-01-01T23:56:51.392Z,12.90
